createdAt,value
2018-08-19T00:00:08.632Z,99.99
2018-08-19T00:01:08.610Z,99.99
2018-08-19T00:02:08.592Z,99.99
2018-08-19T00:03:08.569Z,99.99
2018-08-19T00:04:08.549Z,99.99
2018-08-19T00:05:08.529Z,99.99
2018-08-19T00:06:08.509Z,99.99
2018-08-19T00:07:08.494Z,99.99
2018-08-19T00:08:08.467Z,99.99
2018-08-19T00:09:08.446Z,99.99
2018-08-19T00:10:08.426Z,99.99
2018-08-19T00:11:08.407Z,99.99
2018-08-19T00:12:08.385Z,99.99
2018-08-19T00:13:08.364Z,99.99
2018-08-19T00:14:08.345Z,99.99
2018-08-19T00:15:08.324Z,99.99
2018-08-19T00:16:08.302Z,99.99
2018-08-19T00:17:08.282Z,99.99
2018-08-19T00:18:08.262Z,99.99
2018-08-19T00:19:08.240Z,99.99
2018-08-19T00:20:08.218Z,99.99
2018-08-19T00:21:08.199Z,99.99
2018-08-19T00:22:08.183Z,99.99
2018-08-19T00:23:08.158Z,99.99
2018-08-19T00:24:08.137Z,99.99
2018-08-19T00:25:08.117Z,99.99
2018-08-19T00:26:08.097Z,99.99
2018-08-19T00:27:08.077Z,99.99
2018-08-19T00:28:08.057Z,99.99
2018-08-19T00:29:08.034Z,99.99
2018-08-19T00:30:08.013Z,99.99
2018-08-19T00:31:07.992Z,99.99
2018-08-19T00:32:07.970Z,99.99
2018-08-19T00:33:07.952Z,99.99
2018-08-19T00:34:07.930Z,99.99
2018-08-19T00:35:07.910Z,99.99
2018-08-19T00:36:07.890Z,99.99
2018-08-19T00:37:07.867Z,99.99
2018-08-19T00:38:07.848Z,99.99
2018-08-19T00:39:07.826Z,99.99
2018-08-19T00:40:07.806Z,99.99
2018-08-19T00:41:07.787Z,99.99
2018-08-19T00:42:07.765Z,99.99
2018-08-19T00:43:07.743Z,99.99
2018-08-19T00:44:07.721Z,99.99
2018-08-19T00:45:07.704Z,99.99
2018-08-19T00:46:07.682Z,99.99
2018-08-19T00:47:07.660Z,99.99
2018-08-19T00:48:07.638Z,99.99
2018-08-19T00:49:07.619Z,99.99
2018-08-19T00:50:07.599Z,99.99
2018-08-19T00:51:07.576Z,99.99
2018-08-19T00:52:07.556Z,99.99
2018-08-19T00:53:07.535Z,99.99
2018-08-19T00:54:07.514Z,99.99
2018-08-19T00:55:07.499Z,99.99
2018-08-19T00:56:07.473Z,99.99
2018-08-19T00:57:07.453Z,99.99
2018-08-19T00:58:07.431Z,99.99
2018-08-19T00:59:07.409Z,99.99
2018-08-19T01:00:07.388Z,99.99
2018-08-19T01:01:07.367Z,99.99
2018-08-19T01:02:07.347Z,99.99
2018-08-19T01:03:07.327Z,99.99
2018-08-19T01:04:07.306Z,99.99
2018-08-19T01:05:07.284Z,99.99
2018-08-19T01:06:07.263Z,99.99
2018-08-19T01:07:07.240Z,99.99
2018-08-19T01:08:07.222Z,99.99
2018-08-19T01:09:07.201Z,99.99
2018-08-19T01:10:07.179Z,99.99
2018-08-19T01:11:07.157Z,99.99
2018-08-19T01:12:07.136Z,99.99
2018-08-19T01:13:07.115Z,99.99
2018-08-19T01:14:07.096Z,99.99
2018-08-19T01:15:07.073Z,99.99
2018-08-19T01:16:07.054Z,99.99
2018-08-19T01:17:07.031Z,99.99
2018-08-19T01:18:07.011Z,99.99
2018-08-19T01:19:06.986Z,99.99
2018-08-19T01:20:06.967Z,99.99
2018-08-19T01:21:06.947Z,99.99
2018-08-19T01:22:06.927Z,99.99
2018-08-19T01:23:06.905Z,99.99
2018-08-19T01:24:06.885Z,99.99
2018-08-19T01:25:06.865Z,99.99
2018-08-19T01:26:06.849Z,99.99
2018-08-19T01:27:06.822Z,99.99
2018-08-19T01:28:06.801Z,99.99
2018-08-19T01:29:06.778Z,99.99
2018-08-19T01:30:06.760Z,99.99
2018-08-19T01:31:06.736Z,99.99
2018-08-19T01:32:06.716Z,99.99
2018-08-19T01:33:06.695Z,99.99
2018-08-19T01:34:06.676Z,99.99
2018-08-19T01:35:06.653Z,99.99
2018-08-19T01:36:06.632Z,99.99
2018-08-19T01:37:06.611Z,99.99
2018-08-19T01:38:06.591Z,99.99
2018-08-19T01:39:06.570Z,99.99
2018-08-19T01:40:06.550Z,99.99
2018-08-19T01:41:06.530Z,99.99
2018-08-19T01:42:06.507Z,99.99
2018-08-19T01:43:06.485Z,99.99
2018-08-19T01:44:06.464Z,99.99
2018-08-19T01:45:06.447Z,99.99
2018-08-19T01:46:06.421Z,99.99
2018-08-19T01:47:06.401Z,99.99
2018-08-19T01:48:06.382Z,99.99
2018-08-19T01:49:06.360Z,99.99
2018-08-19T01:50:06.338Z,99.99
2018-08-19T01:51:06.315Z,99.99
2018-08-19T01:52:06.297Z,99.99
2018-08-19T01:53:06.275Z,99.99
2018-08-19T01:54:06.255Z,99.99
2018-08-19T01:55:06.233Z,99.99
2018-08-19T01:56:06.216Z,99.99
2018-08-19T01:57:06.192Z,99.99
2018-08-19T01:58:06.172Z,99.99
2018-08-19T01:59:06.149Z,99.99
2018-08-19T02:00:06.128Z,99.99
2018-08-19T02:01:06.108Z,99.99
2018-08-19T02:02:06.086Z,99.99
2018-08-19T02:03:06.064Z,99.99
2018-08-19T02:04:06.043Z,99.99
2018-08-19T02:05:06.023Z,99.99
2018-08-19T02:06:06.001Z,99.99
2018-08-19T02:07:05.979Z,99.99
2018-08-19T02:08:05.958Z,99.99
2018-08-19T02:09:05.937Z,99.99
2018-08-19T02:10:05.916Z,99.99
2018-08-19T02:11:05.897Z,99.99
2018-08-19T02:12:05.873Z,99.99
2018-08-19T02:13:05.853Z,99.99
2018-08-19T02:14:05.831Z,99.99
2018-08-19T02:15:05.809Z,99.99
2018-08-19T02:16:05.788Z,99.99
2018-08-19T02:17:05.772Z,99.99
2018-08-19T02:18:05.748Z,99.99
2018-08-19T02:19:05.725Z,99.99
2018-08-19T02:20:05.703Z,99.99
2018-08-19T02:21:05.682Z,99.99
2018-08-19T02:22:05.671Z,99.99
2018-08-19T02:23:05.641Z,99.99
2018-08-19T02:24:05.618Z,99.99
2018-08-19T02:25:05.599Z,99.99
2018-08-19T02:26:05.577Z,99.99
2018-08-19T02:27:05.556Z,99.99
2018-08-19T02:28:05.533Z,99.99
2018-08-19T02:29:05.514Z,99.99
2018-08-19T02:30:05.498Z,99.99
2018-08-19T02:31:05.470Z,99.99
2018-08-19T02:32:05.448Z,99.99
2018-08-19T02:33:05.430Z,99.99
2018-08-19T02:34:05.409Z,99.99
2018-08-19T02:35:05.384Z,99.99
2018-08-19T02:36:05.368Z,99.99
2018-08-19T02:37:05.343Z,99.99
2018-08-19T02:38:05.323Z,99.99
2018-08-19T02:39:05.303Z,99.99
2018-08-19T02:40:05.278Z,99.99
2018-08-19T02:41:05.257Z,99.99
2018-08-19T02:42:05.237Z,99.99
2018-08-19T02:43:05.213Z,99.99
2018-08-19T02:44:05.192Z,99.99
2018-08-19T02:45:05.172Z,99.99
2018-08-19T02:46:05.151Z,99.99
2018-08-19T02:47:05.128Z,99.99
2018-08-19T02:48:05.106Z,99.99
2018-08-19T02:49:05.087Z,99.99
2018-08-19T02:50:05.066Z,99.99
2018-08-19T02:51:05.043Z,99.99
2018-08-19T02:52:05.023Z,99.99
2018-08-19T02:53:05.002Z,99.99
2018-08-19T02:54:04.981Z,99.99
2018-08-19T02:55:04.958Z,99.99
2018-08-19T02:56:04.935Z,99.99
2018-08-19T02:57:04.916Z,99.99
2018-08-19T02:58:04.893Z,99.99
2018-08-19T02:59:04.875Z,99.99
2018-08-19T03:00:04.851Z,99.99
2018-08-19T03:01:04.829Z,99.99
2018-08-19T03:02:04.811Z,99.99
2018-08-19T03:03:04.785Z,99.99
2018-08-19T03:04:04.765Z,99.99
2018-08-19T03:05:04.744Z,99.99
2018-08-19T03:06:04.722Z,99.99
2018-08-19T03:07:04.700Z,99.99
2018-08-19T03:08:04.679Z,99.99
2018-08-19T03:09:04.659Z,99.99
2018-08-19T03:10:04.637Z,99.99
2018-08-19T03:11:04.615Z,99.99
2018-08-19T03:12:04.593Z,99.99
2018-08-19T03:13:04.572Z,99.99
2018-08-19T03:14:04.551Z,99.99
2018-08-19T03:15:04.597Z,99.99
2018-08-19T03:16:04.508Z,99.99
2018-08-19T03:17:04.489Z,99.99
2018-08-19T03:18:04.463Z,99.99
2018-08-19T03:19:04.443Z,99.99
2018-08-19T03:20:04.421Z,99.99
2018-08-19T03:21:04.400Z,99.99
2018-08-19T03:22:04.378Z,99.99
2018-08-19T03:23:04.356Z,99.99
2018-08-19T03:24:04.342Z,99.99
2018-08-19T03:25:04.314Z,99.99
2018-08-19T03:26:04.291Z,99.99
2018-08-19T03:27:04.272Z,99.99
2018-08-19T03:28:04.249Z,99.99
2018-08-19T03:29:04.227Z,99.99
2018-08-19T03:30:04.205Z,99.99
2018-08-19T03:31:04.185Z,99.99
2018-08-19T03:32:04.161Z,99.99
2018-08-19T03:33:04.173Z,99.99
2018-08-19T03:34:04.120Z,99.99
2018-08-19T03:35:04.096Z,99.99
2018-08-19T03:36:04.079Z,99.99
2018-08-19T03:37:04.054Z,99.99
2018-08-19T03:38:04.091Z,99.99
2018-08-19T03:39:04.009Z,99.99
2018-08-19T03:40:03.989Z,99.99
2018-08-19T03:41:03.968Z,99.99
2018-08-19T03:42:03.947Z,99.99
2018-08-19T03:43:03.924Z,99.99
2018-08-19T03:44:03.903Z,99.99
2018-08-19T03:45:03.880Z,99.99
2018-08-19T03:46:03.857Z,99.99
2018-08-19T03:47:03.835Z,99.99
2018-08-19T03:48:03.813Z,99.99
2018-08-19T03:49:03.793Z,99.99
2018-08-19T03:50:03.771Z,99.99
2018-08-19T03:51:03.749Z,99.99
2018-08-19T03:52:03.727Z,99.99
2018-08-19T03:53:03.716Z,99.99
2018-08-19T03:54:03.684Z,99.99
2018-08-19T03:55:03.661Z,99.99
2018-08-19T03:56:03.642Z,99.99
2018-08-19T03:57:03.620Z,99.99
2018-08-19T03:58:03.602Z,99.99
2018-08-19T03:59:03.574Z,99.99
2018-08-19T04:00:03.552Z,99.99
2018-08-19T04:01:03.533Z,99.99
2018-08-19T04:02:03.512Z,99.99
2018-08-19T04:03:03.490Z,99.99
2018-08-19T04:04:03.466Z,99.99
2018-08-19T04:05:03.448Z,99.99
2018-08-19T04:06:03.423Z,99.99
2018-08-19T04:07:03.398Z,99.99
2018-08-19T04:08:03.378Z,99.99
2018-08-19T04:09:03.356Z,99.99
2018-08-19T04:10:03.335Z,99.99
2018-08-19T04:11:03.312Z,99.99
2018-08-19T04:12:03.291Z,99.99
2018-08-19T04:13:03.270Z,99.99
2018-08-19T04:14:03.248Z,99.99
2018-08-19T04:15:03.227Z,99.99
2018-08-19T04:16:03.206Z,99.99
2018-08-19T04:17:03.182Z,99.99
2018-08-19T04:18:03.160Z,99.99
2018-08-19T04:19:03.139Z,99.99
2018-08-19T04:20:03.117Z,99.99
2018-08-19T04:21:03.097Z,99.99
2018-08-19T04:22:03.079Z,99.99
2018-08-19T04:23:03.051Z,99.99
2018-08-19T04:24:03.030Z,99.99
2018-08-19T04:25:03.012Z,99.99
2018-08-19T04:26:02.987Z,99.99
2018-08-19T04:27:02.965Z,99.99
2018-08-19T04:28:02.944Z,99.99
2018-08-19T04:29:02.921Z,99.99
2018-08-19T04:30:02.901Z,99.99
2018-08-19T04:31:02.879Z,99.99
2018-08-19T04:32:02.857Z,99.99
2018-08-19T04:33:02.842Z,99.99
2018-08-19T04:34:02.815Z,99.99
2018-08-19T04:35:02.795Z,99.99
2018-08-19T04:36:02.771Z,99.99
2018-08-19T04:37:02.749Z,99.99
2018-08-19T04:38:02.728Z,99.99
2018-08-19T04:39:02.705Z,99.99
2018-08-19T04:40:02.685Z,99.99
2018-08-19T04:41:02.662Z,99.99
2018-08-19T04:42:02.644Z,99.99
2018-08-19T04:43:02.618Z,99.99
2018-08-19T04:44:02.598Z,99.99
2018-08-19T04:45:02.576Z,99.99
2018-08-19T04:46:02.554Z,99.99
2018-08-19T04:47:02.532Z,99.99
2018-08-19T04:48:02.512Z,99.99
2018-08-19T04:49:02.490Z,99.99
2018-08-19T04:50:02.468Z,99.99
2018-08-19T04:51:02.446Z,99.99
2018-08-19T04:52:02.425Z,99.99
2018-08-19T04:53:02.406Z,99.99
2018-08-19T04:54:02.382Z,99.99
2018-08-19T04:55:02.360Z,99.99
2018-08-19T04:56:02.339Z,99.99
2018-08-19T04:57:02.317Z,99.99
2018-08-19T04:58:02.297Z,99.99
2018-08-19T04:59:02.280Z,99.99
2018-08-19T05:00:02.253Z,99.99
2018-08-19T05:01:02.231Z,99.99
2018-08-19T05:02:02.218Z,99.99
2018-08-19T05:03:02.187Z,99.99
2018-08-19T05:04:02.167Z,99.99
2018-08-19T05:05:02.149Z,99.99
2018-08-19T05:06:02.132Z,99.99
2018-08-19T05:07:02.101Z,99.99
2018-08-19T05:08:02.149Z,99.99
2018-08-19T05:09:02.058Z,99.99
2018-08-19T05:10:02.039Z,99.99
2018-08-19T05:11:02.015Z,99.99
2018-08-19T05:12:01.994Z,99.99
2018-08-19T05:13:01.972Z,99.99
2018-08-19T05:14:01.953Z,99.99
2018-08-19T05:15:01.933Z,99.99
2018-08-19T05:16:01.908Z,99.99
2018-08-19T05:17:01.895Z,99.99
2018-08-19T05:18:01.868Z,99.99
2018-08-19T05:19:01.844Z,99.99
2018-08-19T05:20:01.824Z,99.99
2018-08-19T05:21:01.804Z,99.99
2018-08-19T05:22:01.778Z,99.99
2018-08-19T05:23:01.759Z,99.99
2018-08-19T05:24:01.737Z,99.99
2018-08-19T05:25:01.717Z,99.99
2018-08-19T05:26:01.703Z,99.99
2018-08-19T05:27:01.674Z,99.99
2018-08-19T05:28:01.651Z,99.99
2018-08-19T05:29:01.633Z,99.99
2018-08-19T05:30:01.609Z,99.99
2018-08-19T05:31:01.590Z,99.99
2018-08-19T05:32:01.565Z,99.99
2018-08-19T05:33:01.542Z,99.99
2018-08-19T05:34:01.522Z,99.99
2018-08-19T05:35:01.502Z,99.99
2018-08-19T05:36:01.478Z,99.99
2018-08-19T05:37:01.456Z,99.99
2018-08-19T05:38:01.498Z,99.99
2018-08-19T05:39:01.415Z,99.99
2018-08-19T05:40:01.398Z,99.99
2018-08-19T05:41:01.373Z,99.99
2018-08-19T05:42:01.352Z,99.99
2018-08-19T05:43:01.330Z,99.99
2018-08-19T05:44:01.310Z,99.99
2018-08-19T05:45:01.291Z,99.99
2018-08-19T05:46:01.269Z,99.99
2018-08-19T05:47:01.261Z,99.99
2018-08-19T05:48:01.227Z,99.99
2018-08-19T05:49:01.205Z,99.99
2018-08-19T05:50:01.185Z,99.99
2018-08-19T05:51:01.162Z,99.99
2018-08-19T05:52:01.145Z,99.99
2018-08-19T05:53:01.123Z,99.99
2018-08-19T05:54:01.151Z,99.99
2018-08-19T05:55:01.081Z,99.99
2018-08-19T05:56:01.071Z,99.99
2018-08-19T05:57:01.040Z,99.99
2018-08-19T05:58:01.020Z,99.99
2018-08-19T05:59:01.000Z,99.99
2018-08-19T06:00:00.979Z,99.99
2018-08-19T06:01:01.005Z,99.99
2018-08-19T06:02:00.939Z,99.99
2018-08-19T06:03:00.917Z,99.99
2018-08-19T06:04:00.898Z,99.99
2018-08-19T06:05:00.880Z,99.99
2018-08-19T06:06:00.860Z,99.99
2018-08-19T06:07:00.836Z,99.99
2018-08-19T06:08:00.818Z,99.99
2018-08-19T06:09:00.798Z,99.99
2018-08-19T06:10:00.779Z,99.99
2018-08-19T06:11:00.757Z,99.99
2018-08-19T06:12:00.738Z,99.99
2018-08-19T06:13:00.717Z,99.99
2018-08-19T06:14:00.699Z,99.99
2018-08-19T06:15:00.678Z,99.99
2018-08-19T06:16:00.714Z,99.99
2018-08-19T06:17:00.638Z,99.99
2018-08-19T06:18:00.618Z,99.99
2018-08-19T06:19:00.597Z,99.99
2018-08-19T06:20:00.579Z,99.99
2018-08-19T06:21:00.558Z,99.99
2018-08-19T06:22:00.544Z,99.99
2018-08-19T06:23:00.564Z,99.99
2018-08-19T06:24:00.497Z,99.99
2018-08-19T06:25:00.478Z,99.99
2018-08-19T06:26:00.458Z,99.99
2018-08-19T06:27:00.436Z,99.99
2018-08-19T06:28:00.415Z,99.99
2018-08-19T06:29:00.396Z,99.99
2018-08-19T06:30:00.377Z,99.99
2018-08-19T06:31:00.367Z,99.99
2018-08-19T06:32:00.336Z,99.99
2018-08-19T06:33:00.316Z,99.99
2018-08-19T06:34:00.297Z,99.99
2018-08-19T06:35:00.511Z,99.99
2018-08-19T06:36:00.257Z,99.99
2018-08-19T06:37:00.236Z,99.99
2018-08-19T06:38:00.217Z,99.99
2018-08-19T06:39:00.195Z,99.99
2018-08-19T06:40:00.178Z,99.99
2018-08-19T06:41:00.156Z,99.99
2018-08-19T06:42:00.135Z,99.99
2018-08-19T06:43:00.132Z,99.99
2018-08-19T06:44:00.092Z,99.99
2018-08-19T06:45:00.076Z,99.99
2018-08-19T06:46:00.055Z,99.99
2018-08-19T06:47:00.035Z,99.99
2018-08-19T06:48:00.019Z,99.99
2018-08-19T06:48:59.993Z,99.99
2018-08-19T06:49:59.974Z,99.99
2018-08-19T06:50:59.955Z,99.99
2018-08-19T06:51:59.933Z,99.99
2018-08-19T06:52:59.915Z,99.99
2018-08-19T06:53:59.895Z,99.99
2018-08-19T06:54:59.872Z,99.99
2018-08-19T06:55:59.854Z,99.99
2018-08-19T06:56:59.835Z,99.99
2018-08-19T06:57:59.814Z,99.99
2018-08-19T06:58:59.795Z,99.99
2018-08-19T06:59:59.774Z,99.99
2018-08-19T07:00:59.753Z,99.99
2018-08-19T07:01:59.733Z,99.99
2018-08-19T07:02:59.712Z,99.99
2018-08-19T07:03:59.743Z,99.99
2018-08-19T07:04:59.718Z,99.78
2018-08-19T07:05:59.657Z,99.87
2018-08-19T07:06:59.633Z,99.78
2018-08-19T07:07:59.613Z,99.20
2018-08-19T07:08:59.596Z,99.97
2018-08-19T07:09:59.574Z,99.58
2018-08-19T07:10:59.554Z,99.35
2018-08-19T07:11:59.533Z,98.48
2018-08-19T07:12:59.515Z,98.68
2018-08-19T07:13:59.495Z,98.86
2018-08-19T07:14:59.472Z,98.48
2018-08-19T07:15:59.454Z,97.81
2018-08-19T07:16:59.436Z,97.52
2018-08-19T07:17:59.416Z,97.42
2018-08-19T07:18:59.396Z,97.62
2018-08-19T07:19:59.379Z,97.42
2018-08-19T07:20:59.357Z,97.42
2018-08-19T07:21:59.340Z,97.42
2018-08-19T07:22:59.316Z,97.33
2018-08-19T07:23:59.298Z,97.04
2018-08-19T07:24:59.277Z,97.14
2018-08-19T07:25:59.257Z,96.27
2018-08-19T07:26:59.242Z,96.27
2018-08-19T07:27:59.218Z,96.70
2018-08-19T07:28:59.198Z,96.22
2018-08-19T07:29:59.178Z,96.80
2018-08-19T07:30:59.159Z,95.84
2018-08-19T07:31:59.140Z,95.45
2018-08-19T07:32:59.120Z,95.55
2018-08-19T07:33:59.100Z,94.49
2018-08-19T07:34:59.079Z,94.21
2018-08-19T07:35:59.061Z,93.82
2018-08-19T07:36:59.141Z,92.57
2018-08-19T07:37:59.029Z,93.24
2018-08-19T07:38:59.002Z,93.53
2018-08-19T07:39:58.984Z,93.73
2018-08-19T07:40:58.963Z,92.91
2018-08-19T07:41:58.952Z,93.10
2018-08-19T07:42:58.928Z,93.34
2018-08-19T07:43:58.973Z,94.15
2018-08-19T07:44:58.890Z,93.10
2018-08-19T07:45:58.867Z,92.61
2018-08-19T07:46:58.847Z,92.71
2018-08-19T07:47:58.828Z,93.48
2018-08-19T07:48:58.809Z,92.61
2018-08-19T07:49:58.790Z,92.04
2018-08-19T07:50:58.770Z,92.04
2018-08-19T07:51:58.752Z,91.85
2018-08-19T07:52:58.733Z,91.89
2018-08-19T07:53:58.714Z,91.46
2018-08-19T07:54:58.695Z,91.89
2018-08-19T07:55:58.677Z,91.70
2018-08-19T07:56:58.656Z,90.55
2018-08-19T07:57:58.637Z,91.22
2018-08-19T07:58:58.618Z,91.13
2018-08-19T07:59:58.597Z,91.70
2018-08-19T08:00:58.579Z,90.55
2018-08-19T08:01:58.560Z,90.64
2018-08-19T08:02:58.541Z,90.06
2018-08-19T08:03:58.522Z,89.39
2018-08-19T08:04:58.504Z,89.78
2018-08-19T08:05:58.486Z,90.06
2018-08-19T08:06:58.465Z,89.78
2018-08-19T08:07:58.445Z,89.58
2018-08-19T08:08:58.427Z,89.20
2018-08-19T08:09:58.409Z,88.38
2018-08-19T08:10:58.477Z,88.28
2018-08-19T08:11:58.371Z,87.90
2018-08-19T08:12:58.353Z,88.18
2018-08-19T08:13:58.334Z,88.85
2018-08-19T08:14:58.314Z,88.38
2018-08-19T08:15:58.296Z,87.51
2018-08-19T08:16:58.277Z,86.16
2018-08-19T08:17:58.259Z,86.35
2018-08-19T08:18:58.240Z,85.97
2018-08-19T08:19:58.222Z,85.24
2018-08-19T08:20:58.203Z,85.20
2018-08-19T08:21:58.191Z,84.86
2018-08-19T08:22:58.167Z,84.86
2018-08-19T08:23:58.149Z,84.18
2018-08-19T08:24:58.128Z,84.38
2018-08-19T08:25:58.110Z,84.42
2018-08-19T08:26:58.094Z,83.84
2018-08-19T08:27:58.083Z,82.49
2018-08-19T08:28:58.058Z,82.97
2018-08-19T08:29:58.038Z,83.45
2018-08-19T08:30:58.026Z,82.29
2018-08-19T08:31:58.004Z,81.57
2018-08-19T08:32:57.987Z,81.85
2018-08-19T08:33:57.966Z,81.85
2018-08-19T08:34:57.949Z,81.85
2018-08-19T08:35:57.930Z,81.37
2018-08-19T08:36:57.913Z,81.37
2018-08-19T08:37:57.894Z,81.81
2018-08-19T08:38:57.878Z,80.99
2018-08-19T08:39:57.859Z,80.51
2018-08-19T08:40:57.842Z,79.68
2018-08-19T08:41:57.826Z,78.33
2018-08-19T08:42:57.811Z,79.68
2018-08-19T08:43:57.792Z,78.61
2018-08-19T08:44:57.775Z,78.61
2018-08-19T08:45:57.768Z,79.54
2018-08-19T08:46:57.741Z,80.02
2018-08-19T08:47:57.754Z,80.22
2018-08-19T08:48:57.706Z,79.39
2018-08-19T08:49:57.690Z,79.33
2018-08-19T08:50:57.675Z,78.46
2018-08-19T08:51:57.656Z,77.92
2018-08-19T08:52:57.644Z,77.40
2018-08-19T08:53:57.624Z,77.25
2018-08-19T08:54:57.608Z,75.89
2018-08-19T08:55:57.586Z,77.28
2018-08-19T08:56:57.577Z,75.54
2018-08-19T08:57:57.560Z,76.61
2018-08-19T08:58:57.544Z,75.89
2018-08-19T08:59:57.534Z,77.21
2018-08-19T09:00:57.515Z,77.15
2018-08-19T09:01:57.499Z,77.25
2018-08-19T09:02:57.482Z,77.09
2018-08-19T09:03:57.473Z,74.62
2018-08-19T09:04:57.452Z,73.49
2018-08-19T09:05:57.437Z,73.04
2018-08-19T09:06:57.421Z,72.33
2018-08-19T09:07:57.407Z,72.81
2018-08-19T09:08:57.391Z,73.74
2018-08-19T09:09:57.380Z,74.65
2018-08-19T09:10:57.366Z,73.20
2018-08-19T09:11:57.349Z,72.36
2018-08-19T09:12:57.341Z,72.85
2018-08-19T09:13:57.351Z,72.24
2018-08-19T09:14:57.307Z,73.07
2018-08-19T09:15:57.293Z,74.19
2018-08-19T09:16:57.280Z,73.94
2018-08-19T09:17:57.266Z,73.61
2018-08-19T09:18:57.252Z,74.52
2018-08-19T09:19:57.238Z,73.78
2018-08-19T09:20:57.224Z,73.59
2018-08-19T09:21:57.212Z,72.27
2018-08-19T09:22:57.279Z,73.88
2018-08-19T09:23:57.187Z,75.17
2018-08-19T09:24:57.170Z,73.04
2018-08-19T09:25:57.160Z,74.00
2018-08-19T09:26:57.144Z,76.22
2018-08-19T09:27:57.132Z,76.68
2018-08-19T09:28:57.116Z,75.10
2018-08-19T09:29:57.106Z,75.84
2018-08-19T09:30:57.090Z,77.05
2018-08-19T09:31:57.076Z,78.50
2018-08-19T09:32:57.090Z,77.63
2018-08-19T09:33:57.049Z,78.17
2018-08-19T09:34:57.042Z,76.22
2018-08-19T09:35:57.021Z,76.57
2018-08-19T09:36:57.007Z,75.99
2018-08-19T09:37:56.993Z,76.86
2018-08-19T09:38:56.980Z,77.15
2018-08-19T09:39:56.966Z,77.05
2018-08-19T09:40:56.950Z,77.38
2018-08-19T09:41:56.942Z,78.02
2018-08-19T09:42:56.922Z,78.25
2018-08-19T09:43:56.909Z,75.10
2018-08-19T09:44:56.918Z,74.13
2018-08-19T09:45:56.881Z,73.94
2018-08-19T09:46:56.866Z,73.49
2018-08-19T09:47:57.015Z,73.33
2018-08-19T09:48:56.835Z,73.59
2018-08-19T09:49:56.824Z,74.27
2018-08-19T09:50:56.810Z,72.95
2018-08-19T09:51:56.794Z,72.17
2018-08-19T09:52:56.964Z,71.69
2018-08-19T09:53:56.768Z,71.53
2018-08-19T09:54:56.755Z,69.79
2018-08-19T09:55:56.742Z,70.40
2018-08-19T09:56:56.729Z,68.95
2018-08-19T09:57:56.715Z,69.76
2018-08-19T09:58:56.704Z,67.63
2018-08-19T09:59:56.689Z,67.34
2018-08-19T10:00:56.679Z,68.70
2018-08-19T10:01:56.663Z,67.63
2018-08-19T10:02:56.654Z,67.50
2018-08-19T10:03:56.644Z,68.73
2018-08-19T10:04:56.628Z,70.76
2018-08-19T10:05:56.623Z,68.33
2018-08-19T10:06:56.605Z,70.43
2018-08-19T10:07:56.593Z,70.50
2018-08-19T10:08:56.582Z,69.53
2018-08-19T10:09:56.571Z,67.40
2018-08-19T10:10:56.557Z,66.85
2018-08-19T10:11:56.546Z,66.79
2018-08-19T10:12:56.537Z,67.18
2018-08-19T10:13:56.522Z,66.34
2018-08-19T10:14:56.513Z,66.14
2018-08-19T10:15:56.503Z,65.56
2018-08-19T10:16:56.483Z,65.79
2018-08-19T10:17:56.481Z,65.69
2018-08-19T10:18:56.466Z,65.30
2018-08-19T10:19:56.456Z,65.66
2018-08-19T10:20:56.447Z,65.75
2018-08-19T10:21:56.434Z,67.46
2018-08-19T10:22:56.421Z,69.75
2018-08-19T10:23:56.410Z,69.73
2018-08-19T10:24:56.399Z,67.18
2018-08-19T10:25:56.393Z,65.82
2018-08-19T10:26:56.372Z,65.63
2018-08-19T10:27:56.367Z,65.69
2018-08-19T10:28:56.353Z,65.40
2018-08-19T10:29:56.342Z,64.92
2018-08-19T10:30:56.333Z,65.43
2018-08-19T10:31:56.320Z,65.63
2018-08-19T10:32:56.308Z,65.11
2018-08-19T10:33:56.298Z,64.75
2018-08-19T10:34:56.292Z,64.65
2018-08-19T10:35:56.276Z,64.65
2018-08-19T10:36:56.265Z,64.98
2018-08-19T10:37:56.254Z,63.62
2018-08-19T10:38:56.247Z,62.59
2018-08-19T10:39:56.229Z,62.95
2018-08-19T10:40:56.223Z,63.62
2018-08-19T10:41:56.212Z,63.43
2018-08-19T10:42:56.203Z,63.13
2018-08-19T10:43:56.194Z,63.07
2018-08-19T10:44:56.182Z,62.75
2018-08-19T10:45:56.164Z,62.75
2018-08-19T10:46:56.187Z,62.75
2018-08-19T10:47:56.155Z,62.78
2018-08-19T10:48:56.142Z,61.39
2018-08-19T10:49:56.135Z,62.04
2018-08-19T10:50:56.143Z,64.17
2018-08-19T10:51:56.116Z,63.01
2018-08-19T10:52:56.099Z,62.55
2018-08-19T10:53:56.093Z,62.95
2018-08-19T10:54:56.088Z,62.49
2018-08-19T10:55:56.073Z,62.32
2018-08-19T10:56:56.064Z,60.45
2018-08-19T10:57:56.055Z,61.58
2018-08-19T10:58:56.041Z,61.55
2018-08-19T10:59:56.085Z,61.22
2018-08-19T11:00:56.026Z,62.52
2018-08-19T11:01:56.012Z,61.45
2018-08-19T11:02:56.160Z,61.09
2018-08-19T11:03:55.999Z,60.22
2018-08-19T11:04:55.982Z,60.35
2018-08-19T11:05:55.980Z,59.25
2018-08-19T11:06:55.969Z,59.86
2018-08-19T11:07:55.961Z,58.50
2018-08-19T11:08:55.953Z,59.15
2018-08-19T11:09:55.944Z,59.90
2018-08-19T11:10:55.933Z,61.09
2018-08-19T11:11:55.928Z,60.02
2018-08-19T11:12:55.914Z,59.44
2018-08-19T11:13:55.905Z,59.57
2018-08-19T11:14:55.902Z,59.51
2018-08-19T11:15:55.915Z,60.31
2018-08-19T11:16:55.879Z,61.65
2018-08-19T11:17:55.875Z,60.77
2018-08-19T11:18:55.867Z,60.77
2018-08-19T11:19:55.851Z,60.61
2018-08-19T11:20:55.893Z,60.31
2018-08-19T11:21:55.841Z,60.61
2018-08-19T11:22:55.839Z,61.41
2018-08-19T11:23:55.825Z,59.82
2018-08-19T11:24:55.817Z,58.26
2018-08-19T11:25:55.809Z,57.71
2018-08-19T11:26:55.800Z,58.22
2018-08-19T11:27:55.795Z,57.32
2018-08-19T11:28:55.785Z,58.23
2018-08-19T11:29:55.779Z,59.23
2018-08-19T11:30:55.770Z,58.49
2018-08-19T11:31:55.763Z,57.47
2018-08-19T11:32:55.759Z,56.18
2018-08-19T11:33:55.769Z,56.21
2018-08-19T11:34:55.741Z,58.13
2018-08-19T11:35:55.734Z,57.03
2018-08-19T11:36:55.728Z,57.00
2018-08-19T11:37:55.720Z,57.68
2018-08-19T11:38:55.713Z,57.20
2018-08-19T11:39:55.752Z,57.95
2018-08-19T11:40:55.701Z,58.69
2018-08-19T11:41:55.696Z,59.47
2018-08-19T11:42:55.687Z,59.01
2018-08-19T11:43:55.681Z,58.75
2018-08-19T11:44:55.672Z,59.05
2018-08-19T11:45:55.665Z,58.10
2018-08-19T11:46:55.661Z,57.12
2018-08-19T11:47:55.677Z,57.49
2018-08-19T11:48:55.749Z,57.39
2018-08-19T11:49:55.688Z,57.61
2018-08-19T11:50:55.628Z,58.07
2018-08-19T11:51:55.623Z,57.20
2018-08-19T11:52:55.615Z,57.10
2018-08-19T11:53:55.609Z,57.45
2018-08-19T11:54:55.601Z,56.30
2018-08-19T11:55:55.592Z,56.52
2018-08-19T11:56:55.645Z,55.26
2018-08-19T11:57:55.582Z,55.30
2018-08-19T11:58:55.574Z,55.57
2018-08-19T11:59:55.576Z,56.22
2018-08-19T12:00:55.573Z,57.75
2018-08-19T12:01:55.575Z,58.40
2018-08-19T12:02:55.550Z,58.92
2018-08-19T12:03:55.544Z,58.23
2018-08-19T12:04:55.542Z,58.00
2018-08-19T12:05:55.532Z,57.06
2018-08-19T12:06:55.526Z,55.89
2018-08-19T12:07:55.521Z,56.18
2018-08-19T12:08:55.514Z,55.99
2018-08-19T12:09:55.511Z,56.30
2018-08-19T12:10:55.498Z,54.77
2018-08-19T12:11:55.498Z,55.21
2018-08-19T12:12:55.489Z,56.15
2018-08-19T12:13:55.484Z,55.99
2018-08-19T12:14:55.479Z,55.96
2018-08-19T12:15:55.471Z,56.45
2018-08-19T12:16:55.481Z,55.01
2018-08-19T12:17:55.463Z,56.32
2018-08-19T12:18:55.456Z,57.36
2018-08-19T12:19:55.448Z,57.29
2018-08-19T12:20:55.444Z,56.93
2018-08-19T12:21:55.439Z,56.62
2018-08-19T12:22:55.433Z,53.80
2018-08-19T12:23:55.429Z,55.29
2018-08-19T12:24:55.479Z,53.89
2018-08-19T12:25:55.419Z,54.09
2018-08-19T12:26:55.444Z,53.63
2018-08-19T12:27:55.502Z,53.14
2018-08-19T12:28:55.400Z,53.36
2018-08-19T12:29:55.394Z,55.21
2018-08-19T12:30:55.389Z,55.36
2018-08-19T12:31:55.384Z,54.41
2018-08-19T12:32:55.380Z,52.95
2018-08-19T12:33:55.382Z,52.95
2018-08-19T12:34:55.372Z,53.44
2018-08-19T12:35:55.367Z,54.43
2018-08-19T12:36:55.361Z,54.68
2018-08-19T12:37:55.356Z,54.03
2018-08-19T12:38:55.350Z,54.52
2018-08-19T12:39:55.349Z,55.30
2018-08-19T12:40:55.342Z,55.01
2018-08-19T12:41:55.344Z,55.23
2018-08-19T12:42:55.332Z,54.77
2018-08-19T12:43:55.329Z,53.50
2018-08-19T12:44:55.400Z,55.19
2018-08-19T12:45:55.319Z,53.24
2018-08-19T12:46:55.314Z,52.83
2018-08-19T12:47:55.310Z,52.68
2018-08-19T12:48:55.306Z,51.61
2018-08-19T12:49:55.302Z,51.73
2018-08-19T12:50:55.296Z,51.41
2018-08-19T12:51:55.293Z,52.78